createdAt,value
2023-01-29T00:01:45.653Z,101199.56
2023-01-29T00:06:47.411Z,101222.09
2023-01-29T00:11:49.392Z,101223.66
2023-01-29T00:16:51.046Z,101199.25
2023-01-29T00:21:52.827Z,101255.31
2023-01-29T00:26:54.597Z,101256.56
2023-01-29T00:31:56.320Z,101242.13
2023-01-29T00:37:04.839Z,101200.34
2023-01-29T00:42:25.331Z,101230.75
2023-01-29T00:47:36.591Z,101201.78
2023-01-29T00:52:40.882Z,101210.88
2023-01-29T00:57:42.641Z,101230.69
2023-01-29T01:03:02.892Z,101222.28
2023-01-29T01:08:24.869Z,101240.03
2023-01-29T01:13:26.578Z,101242.19
2023-01-29T01:18:31.562Z,101193.44
2023-01-29T01:23:33.676Z,101224.00
2023-01-29T01:28:35.854Z,101215.34
2023-01-29T01:33:38.310Z,101202.81
2023-01-29T01:38:44.682Z,101232.88
2023-01-29T01:43:50.923Z,101237.53
2023-01-29T01:49:01.571Z,101270.59
2023-01-29T01:54:19.994Z,101231.53
2023-01-29T01:59:22.997Z,101219.03
2023-01-29T02:04:45.151Z,101237.13
2023-01-29T02:10:03.929Z,101228.88
2023-01-29T02:15:06.789Z,101196.78
2023-01-29T02:20:24.431Z,101251.84
2023-01-29T02:26:00.157Z,101240.19
2023-01-29T02:31:11.103Z,101256.16
2023-01-29T02:36:41.629Z,101218.13
2023-01-29T02:42:13.496Z,101249.66
2023-01-29T02:47:23.127Z,101227.09
2023-01-29T02:52:44.721Z,101190.84
2023-01-29T02:57:49.069Z,101230.63
2023-01-29T03:03:16.610Z,101177.25
2023-01-29T03:08:36.781Z,101175.03
2023-01-29T03:13:56.195Z,101178.63
2023-01-29T03:19:06.184Z,101204.69
2023-01-29T03:24:29.890Z,101192.53
2023-01-29T03:29:53.769Z,101205.88
2023-01-29T03:35:02.735Z,101170.13
2023-01-29T03:40:07.059Z,101238.41
2023-01-29T03:45:24.739Z,101234.47
2023-01-29T03:50:26.365Z,101210.63
2023-01-29T03:55:34.614Z,101207.41
2023-01-29T04:00:41.837Z,101209.59
2023-01-29T04:05:58.707Z,101208.75
2023-01-29T04:11:06.074Z,101183.75
2023-01-29T04:16:13.265Z,101211.88
2023-01-29T04:21:16.258Z,101227.84
2023-01-29T04:26:53.531Z,101226.22
2023-01-29T04:32:03.983Z,101236.56
2023-01-29T04:37:19.323Z,101230.34
2023-01-29T04:42:32.486Z,101232.19
2023-01-29T04:47:44.480Z,101222.13
2023-01-29T04:53:12.078Z,101210.72
2023-01-29T04:58:22.797Z,101204.09
2023-01-29T05:03:27.354Z,101207.66
2023-01-29T05:08:31.384Z,101194.41
2023-01-29T05:13:39.259Z,101179.69
2023-01-29T05:18:41.537Z,101185.22
2023-01-29T05:23:53.217Z,101171.06
2023-01-29T05:28:56.222Z,101116.22
2023-01-29T05:33:58.262Z,101176.06
2023-01-29T05:38:59.920Z,101109.34
2023-01-29T05:44:01.651Z,101176.34
2023-01-29T05:49:03.985Z,101123.50
2023-01-29T05:54:06.315Z,101174.81
2023-01-29T05:59:08.843Z,101174.97
2023-01-29T06:04:10.622Z,101204.78
2023-01-29T06:09:12.376Z,101206.00
2023-01-29T06:14:14.143Z,101210.03
2023-01-29T06:19:15.830Z,101196.78
2023-01-29T06:24:17.653Z,101197.47
2023-01-29T06:29:19.404Z,101197.06
2023-01-29T06:34:21.162Z,101171.69
2023-01-29T06:39:22.887Z,101175.09
2023-01-29T06:44:24.578Z,101165.69
2023-01-29T06:49:26.311Z,101125.53
2023-01-29T06:54:27.918Z,101140.47
2023-01-29T06:59:29.591Z,101174.41
2023-01-29T07:04:31.246Z,101170.91
2023-01-29T07:09:33.032Z,101172.66
2023-01-29T07:14:34.725Z,101170.47
2023-01-29T07:19:36.328Z,101136.34
2023-01-29T07:24:38.035Z,101166.22
2023-01-29T07:29:39.824Z,101140.69
2023-01-29T07:34:41.500Z,101149.59
2023-01-29T07:39:43.449Z,101154.38
2023-01-29T07:44:45.056Z,101152.19
2023-01-29T07:49:46.753Z,101182.78
2023-01-29T07:54:48.416Z,101187.81
2023-01-29T07:59:50.102Z,101169.97
2023-01-29T08:04:51.835Z,101168.63
2023-01-29T08:09:53.552Z,101182.88
2023-01-29T08:14:55.209Z,101157.41
2023-01-29T08:19:56.923Z,101202.78
2023-01-29T08:25:06.321Z,101201.00
2023-01-29T08:30:11.192Z,101145.84
2023-01-29T08:35:12.888Z,101184.03
2023-01-29T08:40:14.729Z,101181.59
2023-01-29T08:45:17.046Z,101176.78
2023-01-29T11:06:30.075Z,101134.47
2023-01-29T11:11:31.603Z,101131.63
2023-01-29T11:16:45.657Z,101104.25
2023-01-29T11:21:52.182Z,101101.66
2023-01-29T11:26:59.485Z,101145.16
2023-01-29T11:32:35.974Z,101114.84
2023-01-29T11:37:40.008Z,101072.81
2023-01-29T11:42:41.771Z,101086.09
2023-01-29T11:47:50.581Z,101074.91
2023-01-29T11:52:52.899Z,101073.53
2023-01-29T11:58:01.828Z,101064.97
2023-01-29T12:03:13.569Z,101038.34
2023-01-29T12:08:18.350Z,101030.25
2023-01-29T12:13:27.178Z,101054.41
2023-01-29T12:18:55.056Z,101029.94
2023-01-29T12:24:11.803Z,101046.38
2023-01-29T12:29:56.453Z,100990.94
2023-01-29T12:35:03.424Z,100992.50
2023-01-29T12:40:27.328Z,100959.66
2023-01-29T12:45:30.826Z,100964.94
2023-01-29T12:50:35.295Z,100967.22
2023-01-29T12:55:39.709Z,100942.34
2023-01-29T13:00:45.886Z,100941.97
2023-01-29T13:05:56.345Z,100941.75
2023-01-29T13:11:02.604Z,100903.34
2023-01-29T13:16:10.216Z,100929.47
2023-01-29T13:21:16.740Z,100921.75
2023-01-29T13:26:20.030Z,100916.13
2023-01-29T13:31:30.212Z,100913.81
2023-01-29T13:36:32.319Z,100917.00
2023-01-29T13:41:41.703Z,100910.91
2023-01-29T13:46:50.041Z,100917.97
2023-01-29T13:51:51.917Z,100901.78
2023-01-29T13:56:56.301Z,100910.44
2023-01-29T14:02:03.867Z,100925.66
2023-01-29T14:07:43.483Z,100927.94
2023-01-29T14:12:45.699Z,100914.22
2023-01-29T14:17:59.834Z,100912.66
2023-01-29T14:23:04.177Z,100891.31
2023-01-29T14:28:16.043Z,100902.97
2023-01-29T14:33:38.095Z,100892.41
2023-01-29T14:38:46.371Z,100898.16
2023-01-29T14:43:48.024Z,100888.41
2023-01-29T14:48:49.772Z,100862.91
2023-01-29T14:54:20.913Z,100878.16
2023-01-29T14:59:29.885Z,100863.19
2023-01-29T15:04:50.661Z,100867.69
2023-01-29T15:10:22.256Z,100883.06
2023-01-29T15:15:24.872Z,100879.69
2023-01-29T15:20:32.253Z,100874.47
2023-01-29T15:25:49.743Z,100878.53
2023-01-29T15:30:56.171Z,100877.22
2023-01-29T15:36:07.661Z,100880.13
2023-01-29T15:41:20.603Z,100876.69
2023-01-29T15:46:29.699Z,100892.03
2023-01-29T15:51:31.680Z,100875.53
2023-01-29T15:56:38.768Z,100879.59
2023-01-29T16:01:40.380Z,100888.97
2023-01-29T16:06:43.776Z,100885.84
2023-01-29T16:11:47.195Z,100894.66
2023-01-29T16:16:49.228Z,100882.59
2023-01-29T16:21:58.921Z,100879.34
2023-01-29T16:27:08.358Z,100890.91
2023-01-29T16:32:13.819Z,100888.53
2023-01-29T16:37:23.231Z,100880.06
2023-01-29T16:42:31.554Z,100880.19
2023-01-29T16:47:41.876Z,100873.34
2023-01-29T16:53:12.574Z,100873.78
2023-01-29T16:58:24.566Z,100871.22
2023-01-29T17:03:28.732Z,100843.31
2023-01-29T17:08:33.929Z,100845.53
2023-01-29T17:13:42.782Z,100824.22
2023-01-29T17:18:44.394Z,100828.25
2023-01-29T17:23:46.050Z,100838.34
2023-01-29T17:28:50.276Z,100836.63
2023-01-29T17:33:51.907Z,100823.50
2023-01-29T17:38:53.527Z,100815.78
2023-01-29T17:43:55.179Z,100823.16
2023-01-29T17:48:56.824Z,100823.00
2023-01-29T17:53:58.641Z,100855.34
2023-01-29T17:59:00.955Z,100837.22
2023-01-29T18:04:02.590Z,100835.19
2023-01-29T18:09:04.672Z,100822.31
2023-01-29T18:14:13.918Z,100815.72
2023-01-29T18:19:27.635Z,100800.13
2023-01-29T18:24:30.057Z,100825.03
2023-01-29T18:29:31.761Z,100819.34
2023-01-29T18:34:33.453Z,100841.97
2023-01-29T18:39:35.255Z,100842.22
2023-01-29T18:44:36.929Z,100835.50
2023-01-29T18:49:39.269Z,100834.16
2023-01-29T18:54:40.897Z,100824.25
2023-01-29T18:59:42.734Z,100844.06
2023-01-29T19:04:46.907Z,100835.78
2023-01-29T19:09:50.343Z,100833.31
2023-01-29T19:14:51.939Z,100813.25
2023-01-29T19:19:53.624Z,100804.50
2023-01-29T19:24:55.314Z,100823.69
2023-01-29T19:30:00.380Z,100804.00
2023-01-29T19:35:02.175Z,100806.09
2023-01-29T19:40:04.247Z,100790.09
2023-01-29T19:45:06.431Z,100800.78
2023-01-29T19:50:12.107Z,100795.34
2023-01-29T19:55:13.806Z,100783.22
2023-01-29T20:00:17.507Z,100799.41
2023-01-29T20:05:20.401Z,100793.91
2023-01-29T20:10:22.536Z,100805.88
2023-01-29T20:15:24.201Z,100757.50
2023-01-29T20:20:29.857Z,100802.78
2023-01-29T20:25:35.663Z,100789.13
2023-01-29T20:30:37.312Z,100783.38
2023-01-29T20:35:39.252Z,100775.91
2023-01-29T20:40:40.828Z,100780.41
2023-01-29T20:45:42.659Z,100782.03
2023-01-29T20:50:44.576Z,100768.56
2023-01-29T20:55:46.249Z,100764.69
2023-01-29T21:00:47.893Z,100766.16
2023-01-29T21:05:50.343Z,100738.97
2023-01-29T21:10:52.758Z,100748.41
2023-01-29T21:15:54.386Z,100722.38
2023-01-29T21:20:56.190Z,100744.34
2023-01-29T21:26:02.631Z,100720.66
2023-01-29T21:31:07.138Z,100729.56
2023-01-29T21:36:10.173Z,100738.72
2023-01-29T21:41:13.040Z,100742.84
2023-01-29T21:46:16.172Z,100731.38
2023-01-29T21:51:18.951Z,100747.78
2023-01-29T21:56:20.731Z,100704.84
2023-01-29T22:01:36.797Z,100744.06
2023-01-29T22:06:39.905Z,100724.44
2023-01-29T22:11:41.784Z,100708.59
2023-01-29T22:16:43.652Z,100703.50
2023-01-29T22:21:45.419Z,100695.59
2023-01-29T22:26:48.655Z,100687.81
2023-01-29T22:31:51.177Z,100682.50
2023-01-29T22:36:52.811Z,100686.13
2023-01-29T22:41:54.532Z,100662.03
2023-01-29T22:46:56.161Z,100659.44
2023-01-29T22:52:10.124Z,100648.56
2023-01-29T22:57:14.160Z,100638.84
2023-01-29T23:02:15.787Z,100611.50
2023-01-29T23:07:17.392Z,100618.59
2023-01-29T23:12:18.997Z,100617.16
2023-01-29T23:17:20.596Z,100628.69
2023-01-29T23:22:22.236Z,100598.50
2023-01-29T23:27:24.121Z,100625.63
2023-01-29T23:32:25.716Z,100586.38
2023-01-29T23:37:27.473Z,100561.47
2023-01-29T23:42:29.147Z,100568.81
2023-01-29T23:47:30.712Z,100568.16
2023-01-29T23:52:32.413Z,100577.56
2023-01-29T23:57:34.005Z,100536.59
